createdAt,value
2019-06-08T00:00:59.028Z,0.00
2019-06-08T00:01:58.986Z,0.00
2019-06-08T00:02:59.019Z,0.00
2019-06-08T00:03:58.965Z,0.00
2019-06-08T00:04:58.959Z,0.00
2019-06-08T00:05:58.929Z,0.00
2019-06-08T00:06:59.057Z,0.00
2019-06-08T00:07:58.920Z,0.00
2019-06-08T00:08:58.945Z,0.00
2019-06-08T00:09:58.894Z,0.00
2019-06-08T00:10:58.888Z,0.00
2019-06-08T00:11:58.876Z,0.00
2019-06-08T00:12:58.867Z,0.00
2019-06-08T00:13:58.837Z,0.00
2019-06-08T00:14:58.837Z,0.00
2019-06-08T00:15:59.011Z,0.00
2019-06-08T00:16:58.927Z,0.00
2019-06-08T00:17:59.515Z,0.00
2019-06-08T00:18:58.797Z,0.00
2019-06-08T00:19:58.787Z,0.00
2019-06-08T00:20:58.777Z,0.00
2019-06-08T00:21:58.891Z,0.00
2019-06-08T00:22:58.883Z,0.00
2019-06-08T00:23:58.754Z,0.00
2019-06-08T00:24:58.740Z,0.00
2019-06-08T00:25:58.708Z,0.00
2019-06-08T00:26:58.807Z,0.00
2019-06-08T00:27:58.679Z,0.00
2019-06-08T00:28:58.686Z,0.00
2019-06-08T00:29:58.692Z,0.00
2019-06-08T00:30:58.793Z,0.00
2019-06-08T00:31:58.778Z,0.00
2019-06-08T00:32:58.669Z,0.00
2019-06-08T00:33:58.618Z,0.00
2019-06-08T00:34:58.631Z,0.00
2019-06-08T00:35:58.589Z,0.00
2019-06-08T00:36:58.772Z,0.00
2019-06-08T00:37:58.611Z,0.00
2019-06-08T00:38:58.590Z,0.00
2019-06-08T00:39:58.560Z,0.00
2019-06-08T00:40:58.875Z,0.00
2019-06-08T00:41:58.549Z,0.00
2019-06-08T00:42:58.707Z,0.00
2019-06-08T00:43:58.560Z,0.00
2019-06-08T00:44:58.700Z,0.00
2019-06-08T00:45:58.500Z,0.00
2019-06-08T00:46:58.580Z,0.00
2019-06-08T00:47:58.540Z,0.00
2019-06-08T00:48:58.471Z,0.00
2019-06-08T00:49:58.460Z,0.00
2019-06-08T00:50:58.452Z,0.00
2019-06-08T00:51:58.441Z,0.00
2019-06-08T00:52:58.615Z,0.00
2019-06-08T00:53:58.393Z,0.00
2019-06-08T00:54:58.411Z,0.00
2019-06-08T00:55:58.381Z,0.00
2019-06-08T00:56:58.391Z,0.00
2019-06-08T00:57:58.551Z,0.00
2019-06-08T00:58:58.374Z,0.00
2019-06-08T00:59:58.339Z,0.00
2019-06-08T01:00:58.362Z,0.00
2019-06-08T01:02:59.483Z,0.00
2019-06-08T01:03:58.323Z,0.00
2019-06-08T01:04:58.301Z,0.00
2019-06-08T01:05:58.275Z,0.00
2019-06-08T01:06:58.275Z,0.00
2019-06-08T01:07:58.270Z,0.00
2019-06-08T01:08:58.432Z,0.00
2019-06-08T01:09:58.252Z,0.00
2019-06-08T01:10:58.213Z,0.00
2019-06-08T01:11:58.231Z,0.00
2019-06-08T01:12:58.226Z,0.00
2019-06-08T01:13:58.194Z,0.00
2019-06-08T01:14:58.193Z,0.00
2019-06-08T01:15:58.182Z,0.00
2019-06-08T01:16:58.173Z,0.00
2019-06-08T01:18:03.838Z,0.00
2019-06-08T01:18:59.272Z,0.00
2019-06-08T01:19:58.189Z,0.00
2019-06-08T01:20:58.113Z,0.00
2019-06-08T01:21:58.113Z,0.00
2019-06-08T01:22:58.104Z,0.00
2019-06-08T01:23:58.083Z,0.00
2019-06-08T01:24:58.213Z,0.00
2019-06-08T01:25:58.055Z,0.00
2019-06-08T01:26:58.063Z,0.00
2019-06-08T01:27:58.054Z,0.00
2019-06-08T01:28:58.229Z,0.00
2019-06-08T01:29:58.134Z,0.00
2019-06-08T01:30:58.059Z,0.00
2019-06-08T01:31:58.005Z,0.00
2019-06-08T01:32:58.004Z,0.00
2019-06-08T01:33:58.079Z,0.00
2019-06-08T01:34:58.003Z,0.00
2019-06-08T01:35:57.965Z,0.00
2019-06-08T01:36:57.955Z,0.00
2019-06-08T01:37:57.945Z,0.00
2019-06-08T01:38:58.048Z,0.00
2019-06-08T01:39:58.072Z,0.00
2019-06-08T01:40:57.955Z,0.00
2019-06-08T01:41:58.018Z,0.00
2019-06-08T01:42:57.925Z,0.00
2019-06-08T01:43:57.876Z,0.00
2019-06-08T01:44:57.846Z,0.00
2019-06-08T01:45:57.870Z,0.00
2019-06-08T01:46:57.846Z,0.00
2019-06-08T01:47:57.836Z,0.00
2019-06-08T01:48:57.807Z,0.00
2019-06-08T01:49:57.857Z,0.00
2019-06-08T01:50:57.846Z,0.00
2019-06-08T01:51:57.799Z,0.00
2019-06-08T01:52:57.790Z,0.00
2019-06-08T01:53:57.766Z,0.00
2019-06-08T01:54:57.879Z,0.00
2019-06-08T01:55:57.927Z,0.00
2019-06-08T01:56:57.725Z,0.00
2019-06-08T01:57:57.727Z,0.00
2019-06-08T01:58:57.717Z,0.00
2019-06-08T01:59:57.728Z,0.00
2019-06-08T02:00:57.856Z,0.00
2019-06-08T02:01:57.690Z,0.00
2019-06-08T02:02:57.720Z,0.00
2019-06-08T02:03:57.659Z,0.00
2019-06-08T02:04:57.665Z,0.00
2019-06-08T02:05:57.637Z,0.00
2019-06-08T02:06:57.636Z,0.00
2019-06-08T02:07:57.618Z,0.00
2019-06-08T02:08:57.611Z,0.00
2019-06-08T02:09:57.599Z,0.00
2019-06-08T02:10:57.697Z,0.00
2019-06-08T02:11:57.581Z,0.00
2019-06-08T02:12:57.572Z,0.00
2019-06-08T02:13:57.568Z,0.00
2019-06-08T02:14:57.519Z,0.00
2019-06-08T02:15:57.534Z,0.00
2019-06-08T02:16:57.498Z,0.00
2019-06-08T02:17:57.500Z,0.00
2019-06-08T02:18:57.499Z,0.00
2019-06-08T02:19:57.499Z,0.00
2019-06-08T02:20:57.639Z,0.00
2019-06-08T02:21:57.469Z,0.00
2019-06-08T02:22:57.450Z,4.00
2019-06-08T02:23:57.437Z,4.00
2019-06-08T02:24:57.430Z,4.00
2019-06-08T02:25:57.430Z,4.00
2019-06-08T02:26:57.547Z,0.00
2019-06-08T02:27:57.399Z,4.00
2019-06-08T02:28:57.389Z,4.00
2019-06-08T02:29:57.381Z,8.00
2019-06-08T02:30:57.341Z,4.00
2019-06-08T02:31:57.520Z,8.00
2019-06-08T02:32:57.531Z,8.00
2019-06-08T02:33:57.382Z,8.00
2019-06-08T02:34:57.330Z,12.00
2019-06-08T02:35:57.441Z,12.00
2019-06-08T02:36:57.462Z,12.00
2019-06-08T02:37:57.282Z,16.00
2019-06-08T02:38:57.282Z,16.00
2019-06-08T02:39:57.283Z,16.00
2019-06-08T02:40:57.253Z,20.00
2019-06-08T02:41:57.410Z,24.00
2019-06-08T02:42:57.412Z,24.00
2019-06-08T02:43:57.231Z,24.00
2019-06-08T02:44:57.199Z,32.00
2019-06-08T02:45:57.203Z,32.00
2019-06-08T02:46:57.372Z,40.00
2019-06-08T02:47:57.361Z,44.00
2019-06-08T02:49:04.025Z,52.00
2019-06-08T02:49:58.153Z,56.00
2019-06-08T02:50:57.136Z,64.00
2019-06-08T02:51:57.151Z,68.00
2019-06-08T02:52:57.282Z,76.00
2019-06-08T02:53:57.114Z,84.00
2019-06-08T02:54:57.083Z,92.00
2019-06-08T02:55:57.209Z,100.00
2019-06-08T02:56:57.219Z,112.00
2019-06-08T02:58:04.099Z,128.00
2019-06-08T02:58:57.039Z,140.00
2019-06-08T02:59:57.052Z,148.00
2019-06-08T03:00:57.172Z,164.00
2019-06-08T03:01:57.021Z,180.00
2019-06-08T03:02:57.013Z,196.00
2019-06-08T03:03:57.161Z,212.00
2019-06-08T03:04:56.997Z,228.00
2019-06-08T03:05:57.021Z,244.00
2019-06-08T03:06:56.978Z,264.00
2019-06-08T03:07:56.940Z,276.00
2019-06-08T03:08:56.962Z,280.00
2019-06-08T03:09:57.102Z,296.00
2019-06-08T03:10:56.939Z,312.00
2019-06-08T03:11:56.900Z,320.00
2019-06-08T03:12:56.882Z,324.00
2019-06-08T03:13:56.902Z,332.00
2019-06-08T03:14:57.059Z,336.00
2019-06-08T03:15:56.883Z,324.00
2019-06-08T03:16:56.875Z,316.00
2019-06-08T03:17:56.831Z,328.00
2019-06-08T03:18:56.821Z,344.00
2019-06-08T03:19:57.004Z,356.00
2019-06-08T03:20:56.824Z,364.00
2019-06-08T03:21:56.815Z,388.00
2019-06-08T03:22:56.792Z,440.00
2019-06-08T03:23:56.763Z,504.00
2019-06-08T03:24:56.754Z,544.00
2019-06-08T03:25:56.796Z,528.00
2019-06-08T03:26:56.732Z,548.00
2019-06-08T03:27:56.722Z,576.00
2019-06-08T03:28:56.732Z,588.00
2019-06-08T03:29:56.883Z,616.00
2019-06-08T03:30:56.704Z,716.00
2019-06-08T03:31:57.732Z,820.00
2019-06-08T03:32:57.332Z,884.00
2019-06-08T03:33:56.955Z,884.00
2019-06-08T03:34:57.325Z,868.00
2019-06-08T03:35:58.435Z,928.00
2019-06-08T03:36:57.655Z,940.00
2019-06-08T03:37:56.613Z,912.00
2019-06-08T03:38:56.666Z,984.00
2019-06-08T03:39:56.613Z,960.00
2019-06-08T03:40:56.658Z,888.00
2019-06-08T03:42:17.725Z,884.00
2019-06-08T03:42:58.013Z,860.00
2019-06-08T03:43:56.606Z,908.00
2019-06-08T03:44:56.565Z,924.00
2019-06-08T03:45:56.677Z,992.00
2019-06-08T03:46:56.534Z,1028.00
2019-06-08T03:47:56.513Z,1008.00
2019-06-08T03:48:56.515Z,960.00
2019-06-08T03:49:57.777Z,936.00
2019-06-08T03:50:56.598Z,944.00
2019-06-08T03:51:56.484Z,964.00
2019-06-08T03:52:56.504Z,1000.00
2019-06-08T03:53:56.464Z,1028.00
2019-06-08T03:54:56.425Z,988.00
2019-06-08T03:55:56.587Z,960.00
2019-06-08T03:56:56.585Z,972.00
2019-06-08T03:57:56.394Z,960.00
2019-06-08T03:58:56.435Z,928.00
2019-06-08T03:59:56.402Z,908.00
2019-06-08T04:00:56.365Z,908.00
2019-06-08T04:01:56.547Z,928.00
2019-06-08T04:02:56.365Z,940.00
2019-06-08T04:03:59.953Z,952.00
2019-06-08T04:04:56.351Z,1044.00
2019-06-08T04:05:56.317Z,1240.00
2019-06-08T04:06:56.475Z,1400.00
2019-06-08T04:07:56.285Z,1660.00
2019-06-08T04:08:56.307Z,2028.00
2019-06-08T04:09:56.286Z,2732.00
2019-06-08T04:10:56.455Z,2968.00
2019-06-08T04:11:56.268Z,3172.00
2019-06-08T04:12:56.378Z,3384.00
2019-06-08T04:13:56.216Z,3564.00
2019-06-08T04:14:56.238Z,3444.00
2019-06-08T04:15:56.196Z,3428.00
2019-06-08T04:16:56.317Z,2980.00
2019-06-08T04:17:56.192Z,2824.00
2019-06-08T04:18:56.374Z,2736.00
2019-06-08T04:20:10.631Z,2664.00
2019-06-08T04:20:57.149Z,2700.00
2019-06-08T04:21:56.170Z,2832.00
2019-06-08T04:22:56.188Z,2992.00
2019-06-08T04:23:56.128Z,2480.00
2019-06-08T04:24:56.127Z,2364.00
2019-06-08T04:25:56.097Z,2456.00
2019-06-08T04:26:56.112Z,2748.00
2019-06-08T04:27:56.069Z,3076.00
2019-06-08T04:28:56.259Z,3460.00
2019-06-08T04:29:56.179Z,4488.00
2019-06-08T04:30:56.071Z,4900.00
2019-06-08T04:31:56.056Z,5044.00
2019-06-08T04:32:56.139Z,4808.00
2019-06-08T04:33:56.023Z,4856.00
2019-06-08T04:34:56.018Z,5148.00
2019-06-08T04:35:56.020Z,5328.00
2019-06-08T04:36:55.974Z,5520.00
2019-06-08T04:37:55.983Z,5840.00
2019-06-08T04:38:55.950Z,5732.00
2019-06-08T04:39:55.959Z,5724.00
2019-06-08T04:40:55.949Z,5912.00
2019-06-08T04:41:55.952Z,6172.00
2019-06-08T04:42:56.060Z,6564.00
2019-06-08T04:43:55.919Z,6484.00
2019-06-08T04:44:55.888Z,6416.00
2019-06-08T04:45:55.882Z,5928.00
2019-06-08T04:46:55.902Z,5692.00
2019-06-08T04:47:55.866Z,5268.00
2019-06-08T04:48:55.971Z,5256.00
2019-06-08T04:49:55.839Z,5488.00
2019-06-08T04:50:55.834Z,5140.00
2019-06-08T04:51:55.838Z,4476.00
2019-06-08T04:52:55.801Z,4216.00
2019-06-08T04:53:55.946Z,4368.00
2019-06-08T04:54:55.816Z,4744.00
2019-06-08T04:55:55.772Z,5340.00
2019-06-08T04:56:55.780Z,6252.00
2019-06-08T04:57:55.743Z,6604.00
2019-06-08T04:58:55.895Z,7064.00
2019-06-08T04:59:55.751Z,6792.00
2019-06-08T05:00:55.755Z,6560.00
2019-06-08T05:01:55.713Z,6832.00
2019-06-08T05:02:55.713Z,6640.00
2019-06-08T05:03:55.833Z,5928.00
2019-06-08T05:04:55.683Z,6356.00
2019-06-08T05:05:55.832Z,6952.00
2019-06-08T05:06:55.672Z,6364.00
2019-06-08T05:07:55.663Z,5704.00
2019-06-08T05:08:55.649Z,6160.00
2019-06-08T05:09:55.634Z,6988.00
2019-06-08T05:10:55.636Z,7776.00
2019-06-08T05:11:55.751Z,8640.00
2019-06-08T05:12:55.593Z,9204.00
2019-06-08T05:13:55.574Z,10000.00
2019-06-08T05:14:55.583Z,9604.00
2019-06-08T05:15:55.573Z,8684.00
2019-06-08T05:16:55.563Z,9296.00
2019-06-08T05:17:55.523Z,10156.00
2019-06-08T05:18:55.523Z,10640.00
2019-06-08T05:19:55.694Z,10532.00
2019-06-08T05:20:55.514Z,10760.00
2019-06-08T05:21:55.517Z,10764.00
2019-06-08T05:22:55.494Z,10016.00
2019-06-08T05:23:58.845Z,8712.00
2019-06-08T05:24:55.464Z,7928.00
2019-06-08T05:25:55.480Z,7708.00
2019-06-08T05:26:55.454Z,8260.00
2019-06-08T05:27:55.416Z,9060.00
2019-06-08T05:28:55.433Z,9420.00
2019-06-08T05:29:55.395Z,9604.00
2019-06-08T05:30:55.515Z,8884.00
2019-06-08T05:31:55.385Z,9216.00
2019-06-08T05:32:55.398Z,9192.00
2019-06-08T05:33:55.365Z,8868.00
2019-06-08T05:34:55.479Z,8472.00
2019-06-08T05:35:55.466Z,7660.00
2019-06-08T05:36:55.356Z,7536.00
2019-06-08T05:37:55.315Z,7484.00
2019-06-08T05:38:55.340Z,7640.00
2019-06-08T05:39:55.316Z,7504.00
2019-06-08T05:40:55.306Z,7208.00
2019-06-08T05:41:55.399Z,6688.00
2019-06-08T05:42:55.289Z,5852.00
2019-06-08T05:43:55.256Z,5424.00
2019-06-08T05:44:55.278Z,5824.00
2019-06-08T05:45:55.247Z,6348.00
2019-06-08T05:46:55.227Z,6700.00
2019-06-08T05:47:55.236Z,6640.00
2019-06-08T05:48:55.228Z,6656.00
2019-06-08T05:49:55.207Z,6924.00
2019-06-08T05:51:03.626Z,7192.00
2019-06-08T05:51:56.186Z,6876.00
2019-06-08T05:52:55.192Z,6556.00
2019-06-08T05:53:55.288Z,6572.00
2019-06-08T05:54:55.158Z,6792.00
2019-06-08T05:55:55.117Z,6644.00
2019-06-08T05:56:55.135Z,6224.00
2019-06-08T05:57:55.097Z,5604.00
2019-06-08T05:58:55.098Z,5264.00
2019-06-08T05:59:55.099Z,5108.00
2019-06-08T06:00:55.135Z,4456.00
2019-06-08T06:01:55.082Z,4288.00
2019-06-08T06:02:55.040Z,4492.00
2019-06-08T06:03:55.053Z,4392.00
2019-06-08T06:04:55.264Z,4576.00
2019-06-08T06:05:55.019Z,4752.00
2019-06-08T06:06:55.060Z,4716.00
2019-06-08T06:07:54.996Z,5076.00
2019-06-08T06:08:55.009Z,5336.00
2019-06-08T06:09:54.991Z,5592.00
2019-06-08T06:10:54.989Z,5504.00
2019-06-08T06:11:55.157Z,4940.00
2019-06-08T06:12:54.958Z,4836.00
2019-06-08T06:13:54.960Z,4916.00
2019-06-08T06:14:54.921Z,4920.00
2019-06-08T06:15:54.929Z,5212.00
2019-06-08T06:16:55.022Z,5336.00
2019-06-08T06:17:54.880Z,5316.00
2019-06-08T06:18:54.903Z,5028.00
2019-06-08T06:19:54.881Z,5176.00
2019-06-08T06:21:09.752Z,5164.00
2019-06-08T06:21:55.970Z,4812.00
2019-06-08T06:22:58.422Z,4664.00
2019-06-08T06:23:54.812Z,5024.00
2019-06-08T06:24:54.831Z,5532.00
2019-06-08T06:25:54.801Z,5668.00
2019-06-08T06:26:54.931Z,5568.00
2019-06-08T06:27:54.792Z,5408.00
2019-06-08T06:28:54.802Z,5168.00
2019-06-08T06:29:54.815Z,4936.00
2019-06-08T06:30:54.792Z,5212.00
2019-06-08T06:31:54.752Z,5648.00
2019-06-08T06:32:54.864Z,6612.00
2019-06-08T06:33:54.730Z,7016.00
2019-06-08T06:34:54.721Z,6940.00
2019-06-08T06:35:54.682Z,7100.00
2019-06-08T06:36:57.321Z,6724.00
2019-06-08T06:37:54.711Z,6296.00
2019-06-08T06:38:54.653Z,7112.00
2019-06-08T06:39:54.643Z,9340.00
2019-06-08T06:40:54.666Z,11396.00
2019-06-08T06:41:54.743Z,10652.00
2019-06-08T06:42:54.673Z,10060.00
2019-06-08T06:43:54.652Z,11120.00
2019-06-08T06:44:54.773Z,12544.00
2019-06-08T06:45:54.603Z,13332.00
2019-06-08T06:46:54.594Z,13724.00
2019-06-08T06:47:54.719Z,13920.00
2019-06-08T06:48:54.684Z,13956.00
2019-06-08T06:49:54.559Z,13224.00
2019-06-08T06:50:54.537Z,13772.00
2019-06-08T06:51:54.533Z,15708.00
2019-06-08T06:52:54.634Z,17088.00
2019-06-08T06:53:54.507Z,18048.00
2019-06-08T06:54:54.505Z,17984.00
2019-06-08T06:55:54.494Z,15348.00
2019-06-08T06:56:54.468Z,14596.00
2019-06-08T06:57:54.477Z,14916.00
2019-06-08T06:58:54.595Z,17056.00
2019-06-08T06:59:54.496Z,18752.00
2019-06-08T07:00:54.436Z,18496.00
2019-06-08T07:01:57.494Z,17664.00
2019-06-08T07:02:54.416Z,16128.00
2019-06-08T07:03:54.541Z,17184.00
2019-06-08T07:04:54.457Z,17248.00
2019-06-08T07:05:54.430Z,16384.00
2019-06-08T07:06:54.482Z,15268.00
2019-06-08T07:07:54.546Z,14972.00
2019-06-08T07:08:54.710Z,15452.00
2019-06-08T07:09:54.942Z,19712.00
2019-06-08T07:10:55.223Z,23968.00
2019-06-08T07:11:56.205Z,24672.00
2019-06-08T07:12:54.873Z,56544.00
2019-06-08T07:13:55.190Z,28800.00
2019-06-08T07:14:55.488Z,45248.00
2019-06-08T07:15:57.813Z,50016.00
2019-06-08T07:16:54.270Z,26400.00
2019-06-08T07:17:54.991Z,25792.00
2019-06-08T07:18:54.529Z,24352.00
2019-06-08T07:19:54.723Z,19904.00
2019-06-08T07:20:54.396Z,17408.00
2019-06-08T07:21:54.783Z,17856.00
2019-06-08T07:22:54.422Z,19744.00
2019-06-08T07:23:56.043Z,21216.00
2019-06-08T07:24:54.513Z,19840.00
2019-06-08T07:25:54.568Z,19264.00
2019-06-08T07:26:54.554Z,20704.00
2019-06-08T07:27:55.146Z,17664.00
2019-06-08T07:28:55.268Z,16640.00
2019-06-08T07:29:54.822Z,16288.00
2019-06-08T07:30:54.911Z,14876.00
2019-06-08T07:31:55.260Z,16992.00
2019-06-08T07:32:55.131Z,20320.00
2019-06-08T07:33:55.525Z,20032.00
2019-06-08T07:34:55.154Z,22624.00
2019-06-08T07:35:55.228Z,27424.00
2019-06-08T07:36:55.404Z,29824.00
2019-06-08T07:37:55.437Z,25792.00
2019-06-08T07:38:54.014Z,32128.00
2019-06-08T07:39:54.012Z,27360.00
2019-06-08T07:40:57.904Z,27008.00
2019-06-08T07:41:55.983Z,27072.00
2019-06-08T07:42:55.232Z,28992.00
2019-06-08T07:43:54.442Z,30304.00
2019-06-08T07:44:55.084Z,26624.00
2019-06-08T07:45:54.206Z,25248.00
2019-06-08T07:46:53.943Z,30240.00
2019-06-08T07:47:54.038Z,32032.00
2019-06-08T07:48:54.369Z,33472.00
2019-06-08T07:49:55.443Z,28000.00
2019-06-08T07:50:54.308Z,23392.00
2019-06-08T07:52:02.421Z,20864.00
2019-06-08T07:52:54.893Z,21024.00
2019-06-08T07:53:53.873Z,19968.00
2019-06-08T07:54:54.676Z,18272.00
2019-06-08T07:55:53.884Z,17696.00
2019-06-08T07:56:54.939Z,17184.00
2019-06-08T07:57:54.029Z,14892.00
2019-06-08T07:58:54.926Z,14524.00
2019-06-08T07:59:54.545Z,16672.00
2019-06-08T08:00:54.668Z,18720.00
2019-06-08T08:01:54.001Z,18272.00
2019-06-08T08:02:54.352Z,17888.00
2019-06-08T08:03:54.183Z,18336.00
2019-06-08T08:04:54.625Z,19488.00
2019-06-08T08:05:55.077Z,18272.00
2019-06-08T08:06:54.577Z,16864.00
2019-06-08T08:07:54.731Z,16800.00
2019-06-08T08:08:54.822Z,17216.00
2019-06-08T08:09:54.911Z,20192.00
2019-06-08T08:10:54.596Z,22624.00
2019-06-08T08:11:55.096Z,22112.00
2019-06-08T08:12:54.761Z,22144.00
2019-06-08T08:13:54.771Z,26752.00
2019-06-08T08:14:53.636Z,30016.00
2019-06-08T08:15:55.091Z,27392.00
2019-06-08T08:16:54.934Z,28640.00
2019-06-08T08:17:53.924Z,28064.00
2019-06-08T08:18:53.597Z,35584.00
2019-06-08T08:19:53.567Z,36000.00
2019-06-08T08:20:53.568Z,36960.00
2019-06-08T08:21:54.962Z,37568.00
2019-06-08T08:22:57.595Z,34336.00
2019-06-08T08:23:55.906Z,35136.00
2019-06-08T08:24:55.664Z,41632.00
2019-06-08T08:25:55.201Z,34080.00
2019-06-08T08:26:55.011Z,31872.00
2019-06-08T08:27:53.541Z,30304.00
2019-06-08T08:28:54.788Z,36000.00
2019-06-08T08:29:53.479Z,42688.00
2019-06-08T08:30:53.844Z,40832.00
2019-06-08T08:31:53.460Z,44288.00
2019-06-08T08:32:55.104Z,35968.00
2019-06-08T08:33:54.618Z,85984.00
2019-06-08T08:34:53.813Z,39456.00
2019-06-08T08:35:53.730Z,44096.00
2019-06-08T08:36:53.641Z,94560.00
2019-06-08T08:37:56.679Z,95680.00
2019-06-08T08:38:54.371Z,120096.00
2019-06-08T08:39:53.585Z,109728.00
2019-06-08T08:40:54.671Z,77536.00
2019-06-08T08:41:56.867Z,88256.00
2019-06-08T08:42:55.430Z,64832.00
2019-06-08T08:43:54.338Z,39232.00
2019-06-08T08:44:54.194Z,44896.00
2019-06-08T08:45:54.012Z,38176.00
2019-06-08T08:46:54.648Z,47008.00
2019-06-08T08:48:08.241Z,58272.00
2019-06-08T08:48:54.316Z,58912.00
2019-06-08T08:49:54.036Z,105856.00
2019-06-08T08:50:54.154Z,106528.00
2019-06-08T08:51:54.053Z,111648.00
2019-06-08T08:52:54.158Z,114304.00
2019-06-08T08:53:55.851Z,48672.00
2019-06-08T08:54:54.400Z,47968.00
2019-06-08T08:55:54.251Z,24832.00
2019-06-08T08:56:56.563Z,24672.00
2019-06-08T08:57:53.661Z,20832.00
2019-06-08T08:58:54.381Z,17600.00
2019-06-08T08:59:55.184Z,15776.00
2019-06-08T09:00:54.199Z,13828.00
2019-06-08T09:01:53.179Z,14436.00
2019-06-08T09:03:11.339Z,18080.00
2019-06-08T09:03:55.990Z,20448.00
2019-06-08T09:04:55.254Z,20704.00
2019-06-08T09:05:53.807Z,20896.00
2019-06-08T09:06:53.542Z,22144.00
2019-06-08T09:07:53.747Z,21120.00
2019-06-08T09:08:53.766Z,18592.00
2019-06-08T09:09:53.556Z,19424.00
2019-06-08T09:10:53.451Z,17984.00
2019-06-08T09:11:54.043Z,16480.00
2019-06-08T09:12:53.805Z,15648.00
2019-06-08T09:13:53.560Z,16544.00
2019-06-08T09:14:54.291Z,14844.00
2019-06-08T09:15:53.836Z,14456.00
2019-06-08T09:16:53.721Z,14264.00
2019-06-08T09:17:53.864Z,13952.00
2019-06-08T09:18:53.921Z,13964.00
2019-06-08T09:19:54.007Z,12628.00
2019-06-08T09:20:53.964Z,13204.00
2019-06-08T09:21:54.023Z,16104.00
2019-06-08T09:23:00.753Z,18240.00
2019-06-08T09:23:54.061Z,16736.00
2019-06-08T09:24:54.148Z,14712.00
2019-06-08T09:25:55.719Z,12772.00
2019-06-08T09:26:54.212Z,12292.00
2019-06-08T09:27:54.186Z,12996.00
2019-06-08T09:28:54.433Z,13984.00
2019-06-08T09:29:53.774Z,16220.00
2019-06-08T09:30:54.077Z,17984.00
2019-06-08T09:31:53.914Z,19392.00
2019-06-08T09:32:54.337Z,18400.00
2019-06-08T09:33:57.001Z,17472.00
2019-06-08T09:34:54.647Z,17440.00
2019-06-08T09:35:53.551Z,16244.00
2019-06-08T09:36:54.940Z,15516.00
2019-06-08T09:37:53.738Z,17024.00
2019-06-08T09:38:55.019Z,16992.00
2019-06-08T09:39:53.932Z,16576.00
2019-06-08T09:40:53.731Z,15920.00
2019-06-08T09:41:54.171Z,16672.00
2019-06-08T09:42:56.031Z,16288.00
2019-06-08T09:43:55.269Z,18144.00
2019-06-08T09:44:53.950Z,20864.00
2019-06-08T09:45:53.706Z,21312.00
2019-06-08T09:46:53.640Z,19072.00
2019-06-08T09:47:53.689Z,17536.00
2019-06-08T09:48:53.959Z,17248.00
2019-06-08T09:49:53.828Z,17440.00
2019-06-08T09:50:53.068Z,16064.00
2019-06-08T09:51:53.783Z,16092.00
2019-06-08T09:53:06.198Z,17120.00
2019-06-08T09:53:54.714Z,15356.00
2019-06-08T09:54:54.172Z,14200.00
2019-06-08T09:55:53.284Z,13108.00
2019-06-08T09:56:53.693Z,13904.00
2019-06-08T09:57:54.507Z,17088.00
2019-06-08T09:58:52.644Z,18656.00
2019-06-08T09:59:54.720Z,17376.00
2019-06-08T10:00:54.570Z,16104.00
2019-06-08T10:01:53.978Z,11500.00
2019-06-08T10:02:54.676Z,9984.00
2019-06-08T10:03:54.171Z,11172.00
2019-06-08T10:04:54.117Z,10364.00
2019-06-08T10:05:52.448Z,11556.00
2019-06-08T10:06:52.454Z,13540.00
2019-06-08T10:07:52.401Z,15424.00
2019-06-08T10:08:52.459Z,17216.00
2019-06-08T10:09:52.457Z,18592.00
2019-06-08T10:10:52.405Z,18272.00
2019-06-08T10:11:52.392Z,15904.00
2019-06-08T10:12:52.498Z,16088.00
2019-06-08T10:13:52.375Z,18944.00
2019-06-08T10:14:52.330Z,19296.00
2019-06-08T10:15:52.501Z,18592.00
2019-06-08T10:16:52.341Z,20352.00
2019-06-08T10:17:52.300Z,21856.00
2019-06-08T10:18:52.303Z,21824.00
2019-06-08T10:19:52.406Z,22112.00
2019-06-08T10:20:52.281Z,23360.00
2019-06-08T10:21:52.264Z,24032.00
2019-06-08T10:22:52.282Z,20672.00
2019-06-08T10:23:52.320Z,16124.00
2019-06-08T10:24:52.241Z,16512.00
2019-06-08T10:25:52.361Z,18304.00
2019-06-08T10:26:52.222Z,16704.00
2019-06-08T10:27:52.198Z,13464.00
2019-06-08T10:28:52.201Z,13000.00
2019-06-08T10:29:52.193Z,16340.00
2019-06-08T10:30:52.349Z,17056.00
2019-06-08T10:31:52.339Z,14576.00
2019-06-08T10:32:52.153Z,14028.00
2019-06-08T10:33:52.142Z,15004.00
2019-06-08T10:34:52.146Z,14180.00
2019-06-08T10:35:52.122Z,13720.00
2019-06-08T10:36:52.323Z,14436.00
2019-06-08T10:37:55.171Z,15948.00
2019-06-08T10:38:52.073Z,20352.00
2019-06-08T10:39:52.087Z,25696.00
2019-06-08T10:40:52.064Z,24736.00
2019-06-08T10:41:52.141Z,29408.00
2019-06-08T10:42:52.053Z,43424.00
2019-06-08T10:43:52.061Z,58976.00
2019-06-08T10:44:52.037Z,49152.00
2019-06-08T10:45:52.018Z,38688.00
2019-06-08T10:46:52.032Z,28960.00
2019-06-08T10:47:52.118Z,24448.00
2019-06-08T10:48:51.971Z,20608.00
2019-06-08T10:49:51.986Z,18912.00
2019-06-08T10:50:51.940Z,18336.00
2019-06-08T10:51:51.946Z,18912.00
2019-06-08T10:52:51.936Z,17536.00
2019-06-08T10:53:53.653Z,16352.00
2019-06-08T10:54:51.906Z,16704.00
2019-06-08T10:55:51.917Z,17408.00
2019-06-08T10:56:51.876Z,20096.00
2019-06-08T10:57:51.886Z,21600.00
2019-06-08T10:58:51.877Z,24000.00
2019-06-08T10:59:51.848Z,22272.00
2019-06-08T11:00:51.881Z,20288.00
2019-06-08T11:01:51.830Z,16992.00
2019-06-08T11:02:51.837Z,15332.00
2019-06-08T11:03:51.887Z,15328.00
2019-06-08T11:04:51.847Z,16512.00
2019-06-08T11:05:51.806Z,16512.00
2019-06-08T11:06:51.788Z,16016.00
2019-06-08T11:07:51.766Z,15272.00
2019-06-08T11:08:51.884Z,15032.00
2019-06-08T11:09:51.739Z,15740.00
2019-06-08T11:10:51.756Z,15884.00
2019-06-08T11:11:51.739Z,14260.00
2019-06-08T11:12:51.748Z,13932.00
2019-06-08T11:13:51.734Z,19200.00
2019-06-08T11:14:51.713Z,28416.00
2019-06-08T11:15:51.700Z,67584.00
2019-06-08T11:16:51.797Z,23936.00
2019-06-08T11:17:51.697Z,16112.00
2019-06-08T11:18:51.670Z,11912.00
2019-06-08T11:19:51.641Z,12080.00
2019-06-08T11:20:51.651Z,13988.00
2019-06-08T11:21:51.635Z,17024.00
2019-06-08T11:22:51.611Z,22560.00
2019-06-08T11:24:05.550Z,26688.00
2019-06-08T11:24:52.613Z,27264.00
2019-06-08T11:25:51.571Z,30176.00
2019-06-08T11:26:51.582Z,35744.00
2019-06-08T11:27:51.552Z,37472.00
2019-06-08T11:28:51.678Z,34880.00
2019-06-08T11:29:51.541Z,34752.00
2019-06-08T11:30:51.545Z,36736.00
2019-06-08T11:31:51.523Z,33344.00
2019-06-08T11:32:51.522Z,34240.00
2019-06-08T11:33:51.502Z,33984.00
2019-06-08T11:34:51.648Z,32960.00
2019-06-08T11:35:51.540Z,38016.00
2019-06-08T11:36:51.769Z,46016.00
2019-06-08T11:37:51.484Z,53600.00
2019-06-08T11:38:51.594Z,38400.00
2019-06-08T11:39:51.420Z,28448.00
2019-06-08T11:40:51.419Z,27552.00
2019-06-08T11:41:51.414Z,27104.00
2019-06-08T11:42:51.404Z,34816.00
2019-06-08T11:43:51.377Z,39328.00
2019-06-08T11:44:51.590Z,38592.00
2019-06-08T11:45:51.360Z,38816.00
2019-06-08T11:46:51.378Z,34656.00
2019-06-08T11:47:51.345Z,32000.00
2019-06-08T11:48:51.360Z,35296.00
2019-06-08T11:49:51.457Z,34752.00
2019-06-08T11:50:51.335Z,29856.00
2019-06-08T11:51:51.315Z,25344.00
2019-06-08T11:52:51.308Z,23776.00
2019-06-08T11:53:52.401Z,23712.00
2019-06-08T11:54:51.386Z,26112.00
2019-06-08T11:55:51.288Z,25536.00
2019-06-08T11:56:51.257Z,21920.00
2019-06-08T11:57:51.218Z,18624.00
2019-06-08T11:58:51.216Z,17888.00
2019-06-08T11:59:51.348Z,18336.00
2019-06-08T12:00:51.215Z,19104.00
2019-06-08T12:01:51.199Z,21152.00
2019-06-08T12:02:51.197Z,22944.00
2019-06-08T12:03:51.158Z,22848.00
2019-06-08T12:04:51.348Z,22304.00
2019-06-08T12:05:51.229Z,20128.00
2019-06-08T12:06:51.119Z,17984.00
2019-06-08T12:07:51.113Z,16112.00
2019-06-08T12:08:51.132Z,13724.00
2019-06-08T12:09:51.219Z,12564.00
2019-06-08T12:10:51.280Z,11240.00
2019-06-08T12:11:51.099Z,10332.00
2019-06-08T12:12:51.092Z,10916.00
2019-06-08T12:13:51.070Z,11516.00